sensor_id;sensor_type;location;lat;lon;timestamp;P1;durP1;ratioP1;P2;durP2;ratioP2
64295;SDS011;51082;38.236;15.432;2023-07-22T00:00:29;1.25;;;1.15;;
64295;SDS011;51082;38.236;15.432;2023-07-22T00:01:31;3.30;;;2.20;;
64295;SDS011;51082;38.236;15.432;2023-07-22T00:02:33;1.92;;;1.48;;
64295;SDS011;51082;38.236;15.432;2023-07-22T00:03:35;5.10;;;2.33;;
64295;SDS011;51082;38.236;15.432;2023-07-22T00:04:38;3.83;;;1.67;;
64295;SDS011;51082;38.236;15.432;2023-07-22T00:05:40;2.50;;;1.50;;
64295;SDS011;51082;38.236;15.432;2023-07-22T00:06:43;5.45;;;2.25;;
64295;SDS011;51082;38.236;15.432;2023-07-22T00:07:44;5.15;;;1.33;;
64295;SDS011;51082;38.236;15.432;2023-07-22T00:08:49;2.83;;;1.55;;
64295;SDS011;51082;38.236;15.432;2023-07-22T00:09:51;7.10;;;2.38;;
64295;SDS011;51082;38.236;15.432;2023-07-22T00:10:54;5.10;;;2.15;;
64295;SDS011;51082;38.236;15.432;2023-07-22T00:11:56;4.55;;;1.85;;
64295;SDS011;51082;38.236;15.432;2023-07-22T00:12:59;9.45;;;2.42;;
64295;SDS011;51082;38.236;15.432;2023-07-22T00:14:01;3.80;;;1.92;;
64295;SDS011;51082;38.236;15.432;2023-07-22T00:15:04;7.05;;;1.85;;
64295;SDS011;51082;38.236;15.432;2023-07-22T00:16:07;3.42;;;1.80;;
64295;SDS011;51082;38.236;15.432;2023-07-22T00:17:10;5.13;;;1.40;;
64295;SDS011;51082;38.236;15.432;2023-07-22T00:18:11;13.68;;;1.73;;
64295;SDS011;51082;38.236;15.432;2023-07-22T00:19:15;2.60;;;1.50;;
64295;SDS011;51082;38.236;15.432;2023-07-22T00:20:17;2.90;;;1.60;;
64295;SDS011;51082;38.236;15.432;2023-07-22T00:21:20;3.08;;;1.50;;
64295;SDS011;51082;38.236;15.432;2023-07-22T00:22:22;6.05;;;1.80;;
64295;SDS011;51082;38.236;15.432;2023-07-22T00:23:27;1.55;;;1.38;;
64295;SDS011;51082;38.236;15.432;2023-07-22T00:24:30;4.65;;;1.75;;
64295;SDS011;51082;38.236;15.432;2023-07-22T00:25:34;5.43;;;1.65;;
64295;SDS011;51082;38.236;15.432;2023-07-22T00:26:36;7.03;;;2.10;;
64295;SDS011;51082;38.236;15.432;2023-07-22T00:27:40;2.45;;;1.55;;
64295;SDS011;51082;38.236;15.432;2023-07-22T00:28:43;2.17;;;1.45;;
64295;SDS011;51082;38.236;15.432;2023-07-22T00:29:46;3.08;;;1.58;;
64295;SDS011;51082;38.236;15.432;2023-07-22T00:30:48;4.13;;;1.83;;
64295;SDS011;51082;38.236;15.432;2023-07-22T00:31:51;3.95;;;1.80;;
64295;SDS011;51082;38.236;15.432;2023-07-22T00:32:52;2.38;;;1.30;;
64295;SDS011;51082;38.236;15.432;2023-07-22T00:33:55;4.43;;;2.17;;
64295;SDS011;51082;38.236;15.432;2023-07-22T00:34:57;3.33;;;1.80;;
64295;SDS011;51082;38.236;15.432;2023-07-22T00:36:00;3.22;;;1.88;;
64295;SDS011;51082;38.236;15.432;2023-07-22T00:37:02;5.35;;;2.55;;
64295;SDS011;51082;38.236;15.432;2023-07-22T00:38:05;2.55;;;2.05;;
64295;SDS011;51082;38.236;15.432;2023-07-22T00:39:07;5.57;;;2.13;;
64295;SDS011;51082;38.236;15.432;2023-07-22T00:40:12;3.55;;;2.15;;
64295;SDS011;51082;38.236;15.432;2023-07-22T00:41:14;3.50;;;1.83;;
64295;SDS011;51082;38.236;15.432;2023-07-22T00:42:17;2.65;;;1.35;;
64295;SDS011;51082;38.236;15.432;2023-07-22T00:43:19;4.57;;;1.98;;
64295;SDS011;51082;38.236;15.432;2023-07-22T00:44:22;4.22;;;1.55;;
64295;SDS011;51082;38.236;15.432;2023-07-22T00:45:24;4.97;;;2.25;;
64295;SDS011;51082;38.236;15.432;2023-07-22T00:46:27;2.95;;;2.17;;
64295;SDS011;51082;38.236;15.432;2023-07-22T00:47:28;4.25;;;1.80;;
64295;SDS011;51082;38.236;15.432;2023-07-22T00:48:31;6.82;;;1.60;;
64295;SDS011;51082;38.236;15.432;2023-07-22T00:49:33;2.20;;;1.65;;
64295;SDS011;51082;38.236;15.432;2023-07-22T00:50:37;6.28;;;2.58;;
64295;SDS011;51082;38.236;15.432;2023-07-22T00:51:40;3.60;;;1.85;;
64295;SDS011;51082;38.236;15.432;2023-07-22T00:52:43;2.88;;;1.20;;
64295;SDS011;51082;38.236;15.432;2023-07-22T00:53:45;5.30;;;1.70;;
64295;SDS011;51082;38.236;15.432;2023-07-22T00:54:48;6.70;;;1.88;;
64295;SDS011;51082;38.236;15.432;2023-07-22T00:55:51;9.85;;;2.58;;
64295;SDS011;51082;38.236;15.432;2023-07-22T00:56:55;3.83;;;1.42;;
64295;SDS011;51082;38.236;15.432;2023-07-22T00:57:57;1.17;;;1.08;;
64295;SDS011;51082;38.236;15.432;2023-07-22T00:59:00;5.93;;;2.60;;
64295;SDS011;51082;38.236;15.432;2023-07-22T01:00:03;2.50;;;1.77;;
64295;SDS011;51082;38.236;15.432;2023-07-22T01:01:06;3.65;;;1.70;;
64295;SDS011;51082;38.236;15.432;2023-07-22T01:02:09;5.82;;;1.65;;
64295;SDS011;51082;38.236;15.432;2023-07-22T01:03:11;7.82;;;2.47;;
64295;SDS011;51082;38.236;15.432;2023-07-22T01:04:14;7.22;;;2.03;;
64295;SDS011;51082;38.236;15.432;2023-07-22T01:05:17;2.85;;;1.67;;
64295;SDS011;51082;38.236;15.432;2023-07-22T01:06:21;2.40;;;1.73;;
64295;SDS011;51082;38.236;15.432;2023-07-22T01:07:23;3.00;;;1.75;;
64295;SDS011;51082;38.236;15.432;2023-07-22T01:08:26;4.63;;;1.60;;
64295;SDS011;51082;38.236;15.432;2023-07-22T01:09:33;3.65;;;1.50;;
64295;SDS011;51082;38.236;15.432;2023-07-22T01:10:37;8.30;;;3.42;;
64295;SDS011;51082;38.236;15.432;2023-07-22T01:11:40;4.68;;;1.73;;
64295;SDS011;51082;38.236;15.432;2023-07-22T01:12:43;3.45;;;1.70;;
64295;SDS011;51082;38.236;15.432;2023-07-22T01:13:45;3.58;;;2.08;;
64295;SDS011;51082;38.236;15.432;2023-07-22T01:14:48;1.63;;;1.27;;
64295;SDS011;51082;38.236;15.432;2023-07-22T01:15:50;2.85;;;1.55;;
64295;SDS011;51082;38.236;15.432;2023-07-22T01:16:54;4.32;;;2.13;;
64295;SDS011;51082;38.236;15.432;2023-07-22T01:17:56;3.83;;;1.48;;
64295;SDS011;51082;38.236;15.432;2023-07-22T01:19:02;2.13;;;1.55;;
64295;SDS011;51082;38.236;15.432;2023-07-22T01:20:06;4.75;;;1.50;;
64295;SDS011;51082;38.236;15.432;2023-07-22T01:21:10;6.63;;;1.80;;
64295;SDS011;51082;38.236;15.432;2023-07-22T01:22:13;9.38;;;1.73;;
64295;SDS011;51082;38.236;15.432;2023-07-22T01:23:19;2.65;;;1.85;;
64295;SDS011;51082;38.236;15.432;2023-07-22T01:24:21;13.90;;;2.40;;
64295;SDS011;51082;38.236;15.432;2023-07-22T01:25:24;5.72;;;1.75;;
64295;SDS011;51082;38.236;15.432;2023-07-22T01:26:26;3.97;;;1.77;;
64295;SDS011;51082;38.236;15.432;2023-07-22T01:27:29;5.07;;;1.55;;
64295;SDS011;51082;38.236;15.432;2023-07-22T01:28:31;8.00;;;1.77;;
64295;SDS011;51082;38.236;15.432;2023-07-22T01:29:37;7.00;;;2.03;;
64295;SDS011;51082;38.236;15.432;2023-07-22T01:30:39;2.53;;;1.35;;
64295;SDS011;51082;38.236;15.432;2023-07-22T01:31:42;8.63;;;1.85;;
64295;SDS011;51082;38.236;15.432;2023-07-22T01:32:45;4.72;;;1.73;;
64295;SDS011;51082;38.236;15.432;2023-07-22T01:33:47;6.45;;;2.13;;
64295;SDS011;51082;38.236;15.432;2023-07-22T01:34:50;8.30;;;2.30;;
64295;SDS011;51082;38.236;15.432;2023-07-22T01:35:52;5.93;;;2.05;;
64295;SDS011;51082;38.236;15.432;2023-07-22T01:36:55;3.47;;;1.50;;
64295;SDS011;51082;38.236;15.432;2023-07-22T01:37:57;2.90;;;1.73;;
64295;SDS011;51082;38.236;15.432;2023-07-22T01:39:01;5.10;;;1.95;;
64295;SDS011;51082;38.236;15.432;2023-07-22T01:40:06;4.00;;;1.77;;
64295;SDS011;51082;38.236;15.432;2023-07-22T01:41:12;6.65;;;1.88;;
64295;SDS011;51082;38.236;15.432;2023-07-22T01:42:14;4.10;;;2.13;;
64295;SDS011;51082;38.236;15.432;2023-07-22T01:43:17;4.30;;;1.40;;
64295;SDS011;51082;38.236;15.432;2023-07-22T01:44:19;6.85;;;1.55;;
64295;SDS011;51082;38.236;15.432;2023-07-22T01:45:21;4.05;;;1.77;;
64295;SDS011;51082;38.236;15.432;2023-07-22T01:46:23;6.35;;;2.20;;
64295;SDS011;51082;38.236;15.432;2023-07-22T01:47:26;2.25;;;1.27;;
64295;SDS011;51082;38.236;15.432;2023-07-22T01:48:28;6.25;;;1.80;;
64295;SDS011;51082;38.236;15.432;2023-07-22T01:49:31;5.05;;;1.83;;
64295;SDS011;51082;38.236;15.432;2023-07-22T01:50:33;7.25;;;1.95;;
64295;SDS011;51082;38.236;15.432;2023-07-22T01:51:36;5.63;;;2.22;;
64295;SDS011;51082;38.236;15.432;2023-07-22T01:52:38;6.70;;;2.33;;
64295;SDS011;51082;38.236;15.432;2023-07-22T01:53:41;5.22;;;1.33;;
64295;SDS011;51082;38.236;15.432;2023-07-22T01:54:44;3.60;;;1.52;;
64295;SDS011;51082;38.236;15.432;2023-07-22T01:55:48;2.08;;;1.60;;
64295;SDS011;51082;38.236;15.432;2023-07-22T01:56:50;3.55;;;1.70;;
64295;SDS011;51082;38.236;15.432;2023-07-22T01:57:53;4.72;;;1.63;;
64295;SDS011;51082;38.236;15.432;2023-07-22T01:58:55;5.63;;;1.70;;
64295;SDS011;51082;38.236;15.432;2023-07-22T01:59:58;3.10;;;1.80;;
64295;SDS011;51082;38.236;15.432;2023-07-22T02:01:00;4.07;;;1.80;;
64295;SDS011;51082;38.236;15.432;2023-07-22T02:02:03;4.60;;;1.65;;
64295;SDS011;51082;38.236;15.432;2023-07-22T02:03:05;3.75;;;1.30;;
64295;SDS011;51082;38.236;15.432;2023-07-22T02:04:08;2.38;;;1.55;;
64295;SDS011;51082;38.236;15.432;2023-07-22T02:05:11;1.92;;;1.15;;
64295;SDS011;51082;38.236;15.432;2023-07-22T02:06:13;9.10;;;1.55;;
64295;SDS011;51082;38.236;15.432;2023-07-22T02:07:16;5.30;;;2.03;;
64295;SDS011;51082;38.236;15.432;2023-07-22T02:08:18;3.95;;;1.48;;
64295;SDS011;51082;38.236;15.432;2023-07-22T02:09:21;6.97;;;1.35;;
64295;SDS011;51082;38.236;15.432;2023-07-22T02:10:24;3.00;;;1.70;;
64295;SDS011;51082;38.236;15.432;2023-07-22T02:11:28;4.65;;;1.90;;
64295;SDS011;51082;38.236;15.432;2023-07-22T02:12:29;2.53;;;1.60;;
64295;SDS011;51082;38.236;15.432;2023-07-22T02:13:33;6.05;;;2.35;;
64295;SDS011;51082;38.236;15.432;2023-07-22T02:14:35;6.90;;;2.00;;
64295;SDS011;51082;38.236;15.432;2023-07-22T02:15:38;4.65;;;2.17;;
64295;SDS011;51082;38.236;15.432;2023-07-22T02:16:42;2.95;;;1.77;;
64295;SDS011;51082;38.236;15.432;2023-07-22T02:17:45;8.15;;;1.80;;
64295;SDS011;51082;38.236;15.432;2023-07-22T02:18:49;2.75;;;1.42;;
64295;SDS011;51082;38.236;15.432;2023-07-22T02:19:52;4.75;;;2.10;;
64295;SDS011;51082;38.236;15.432;2023-07-22T02:20:54;4.20;;;2.05;;
64295;SDS011;51082;38.236;15.432;2023-07-22T02:21:57;9.57;;;1.95;;
64295;SDS011;51082;38.236;15.432;2023-07-22T02:22:59;2.95;;;1.58;;
64295;SDS011;51082;38.236;15.432;2023-07-22T02:24:02;8.57;;;1.65;;
64295;SDS011;51082;38.236;15.432;2023-07-22T02:25:05;1.55;;;1.40;;
64295;SDS011;51082;38.236;15.432;2023-07-22T02:26:12;2.78;;;1.50;;
64295;SDS011;51082;38.236;15.432;2023-07-22T02:27:14;3.85;;;1.38;;
64295;SDS011;51082;38.236;15.432;2023-07-22T02:28:17;4.50;;;2.30;;
64295;SDS011;51082;38.236;15.432;2023-07-22T02:29:22;4.70;;;1.90;;
64295;SDS011;51082;38.236;15.432;2023-07-22T02:30:25;4.03;;;1.67;;
64295;SDS011;51082;38.236;15.432;2023-07-22T02:31:26;5.93;;;1.77;;
64295;SDS011;51082;38.236;15.432;2023-07-22T02:32:30;7.43;;;2.05;;
64295;SDS011;51082;38.236;15.432;2023-07-22T02:33:32;1.85;;;1.42;;
64295;SDS011;51082;38.236;15.432;2023-07-22T02:34:34;9.13;;;2.20;;
64295;SDS011;51082;38.236;15.432;2023-07-22T02:35:37;2.70;;;1.85;;
64295;SDS011;51082;38.236;15.432;2023-07-22T02:36:39;3.33;;;1.98;;
64295;SDS011;51082;38.236;15.432;2023-07-22T02:37:41;8.73;;;2.58;;
64295;SDS011;51082;38.236;15.432;2023-07-22T02:38:44;6.90;;;2.42;;
64295;SDS011;51082;38.236;15.432;2023-07-22T02:39:46;5.05;;;1.38;;
64295;SDS011;51082;38.236;15.432;2023-07-22T02:40:49;5.43;;;1.98;;
64295;SDS011;51082;38.236;15.432;2023-07-22T02:41:52;10.65;;;1.85;;
64295;SDS011;51082;38.236;15.432;2023-07-22T02:42:55;5.75;;;1.50;;
64295;SDS011;51082;38.236;15.432;2023-07-22T02:43:57;2.10;;;1.73;;
64295;SDS011;51082;38.236;15.432;2023-07-22T02:44:59;9.27;;;1.52;;
64295;SDS011;51082;38.236;15.432;2023-07-22T02:46:02;2.83;;;1.80;;
64295;SDS011;51082;38.236;15.432;2023-07-22T02:47:06;2.08;;;1.42;;
64295;SDS011;51082;38.236;15.432;2023-07-22T02:48:08;8.05;;;1.92;;
64295;SDS011;51082;38.236;15.432;2023-07-22T02:49:10;6.55;;;1.48;;
64295;SDS011;51082;38.236;15.432;2023-07-22T02:50:12;3.88;;;1.67;;
64295;SDS011;51082;38.236;15.432;2023-07-22T02:51:14;2.45;;;1.58;;
64295;SDS011;51082;38.236;15.432;2023-07-22T02:52:16;3.60;;;1.98;;
64295;SDS011;51082;38.236;15.432;2023-07-22T02:53:19;2.95;;;1.45;;
64295;SDS011;51082;38.236;15.432;2023-07-22T02:54:21;4.93;;;1.38;;
64295;SDS011;51082;38.236;15.432;2023-07-22T02:55:24;3.42;;;1.52;;
64295;SDS011;51082;38.236;15.432;2023-07-22T02:56:26;3.88;;;1.67;;
64295;SDS011;51082;38.236;15.432;2023-07-22T02:57:30;3.13;;;1.70;;
64295;SDS011;51082;38.236;15.432;2023-07-22T02:58:32;3.58;;;2.13;;
64295;SDS011;51082;38.236;15.432;2023-07-22T02:59:35;7.13;;;2.70;;
64295;SDS011;51082;38.236;15.432;2023-07-22T03:00:37;3.28;;;2.08;;
64295;SDS011;51082;38.236;15.432;2023-07-22T03:01:41;6.75;;;2.17;;
64295;SDS011;51082;38.236;15.432;2023-07-22T03:02:42;4.15;;;2.13;;
64295;SDS011;51082;38.236;15.432;2023-07-22T03:03:44;6.20;;;2.42;;
64295;SDS011;51082;38.236;15.432;2023-07-22T03:04:47;5.90;;;1.90;;
64295;SDS011;51082;38.236;15.432;2023-07-22T03:05:49;4.28;;;2.28;;
64295;SDS011;51082;38.236;15.432;2023-07-22T03:06:52;5.50;;;2.35;;
64295;SDS011;51082;38.236;15.432;2023-07-22T03:07:54;7.57;;;1.85;;
64295;SDS011;51082;38.236;15.432;2023-07-22T03:08:57;3.15;;;2.53;;
64295;SDS011;51082;38.236;15.432;2023-07-22T03:09:59;4.35;;;2.17;;
64295;SDS011;51082;38.236;15.432;2023-07-22T03:11:01;5.30;;;1.80;;
64295;SDS011;51082;38.236;15.432;2023-07-22T03:12:05;2.40;;;1.83;;
64295;SDS011;51082;38.236;15.432;2023-07-22T03:13:09;8.25;;;1.83;;
64295;SDS011;51082;38.236;15.432;2023-07-22T03:14:12;16.13;;;2.60;;
64295;SDS011;51082;38.236;15.432;2023-07-22T03:15:14;2.17;;;1.48;;
64295;SDS011;51082;38.236;15.432;2023-07-22T03:16:17;14.65;;;2.70;;
64295;SDS011;51082;38.236;15.432;2023-07-22T03:17:19;4.82;;;2.38;;
64295;SDS011;51082;38.236;15.432;2023-07-22T03:18:21;4.97;;;2.30;;
64295;SDS011;51082;38.236;15.432;2023-07-22T03:19:24;5.35;;;1.65;;
64295;SDS011;51082;38.236;15.432;2023-07-22T03:20:25;6.35;;;1.88;;
64295;SDS011;51082;38.236;15.432;2023-07-22T03:21:28;9.70;;;2.22;;
64295;SDS011;51082;38.236;15.432;2023-07-22T03:22:30;1.75;;;1.48;;
64295;SDS011;51082;38.236;15.432;2023-07-22T03:23:32;4.45;;;1.92;;
64295;SDS011;51082;38.236;15.432;2023-07-22T03:24:35;7.57;;;2.42;;
64295;SDS011;51082;38.236;15.432;2023-07-22T03:25:37;10.48;;;2.30;;
64295;SDS011;51082;38.236;15.432;2023-07-22T03:26:40;4.97;;;1.85;;
64295;SDS011;51082;38.236;15.432;2023-07-22T03:27:42;8.02;;;2.35;;
64295;SDS011;51082;38.236;15.432;2023-07-22T03:28:47;4.78;;;2.53;;
64295;SDS011;51082;38.236;15.432;2023-07-22T03:29:49;10.77;;;2.65;;
64295;SDS011;51082;38.236;15.432;2023-07-22T03:30:52;22.40;;;2.35;;
64295;SDS011;51082;38.236;15.432;2023-07-22T03:31:54;3.95;;;2.60;;
64295;SDS011;51082;38.236;15.432;2023-07-22T03:32:58;7.13;;;2.55;;
64295;SDS011;51082;38.236;15.432;2023-07-22T03:34:00;10.73;;;2.63;;
64295;SDS011;51082;38.236;15.432;2023-07-22T03:35:03;7.95;;;3.08;;
64295;SDS011;51082;38.236;15.432;2023-07-22T03:36:05;6.53;;;3.20;;
64295;SDS011;51082;38.236;15.432;2023-07-22T03:37:08;4.72;;;2.67;;
64295;SDS011;51082;38.236;15.432;2023-07-22T03:38:12;7.88;;;3.05;;
64295;SDS011;51082;38.236;15.432;2023-07-22T03:39:13;10.98;;;3.70;;
64295;SDS011;51082;38.236;15.432;2023-07-22T03:40:17;6.30;;;3.00;;
64295;SDS011;51082;38.236;15.432;2023-07-22T03:41:20;7.60;;;4.03;;
64295;SDS011;51082;38.236;15.432;2023-07-22T03:42:23;12.60;;;3.75;;
64295;SDS011;51082;38.236;15.432;2023-07-22T03:43:25;7.15;;;2.90;;
64295;SDS011;51082;38.236;15.432;2023-07-22T03:44:29;10.32;;;3.05;;
64295;SDS011;51082;38.236;15.432;2023-07-22T03:45:31;6.55;;;2.67;;
64295;SDS011;51082;38.236;15.432;2023-07-22T03:46:34;4.40;;;2.22;;
64295;SDS011;51082;38.236;15.432;2023-07-22T03:47:36;5.93;;;2.72;;
64295;SDS011;51082;38.236;15.432;2023-07-22T03:48:39;6.20;;;2.53;;
64295;SDS011;51082;38.236;15.432;2023-07-22T03:49:42;10.20;;;2.45;;
64295;SDS011;51082;38.236;15.432;2023-07-22T03:50:43;6.22;;;2.58;;
64295;SDS011;51082;38.236;15.432;2023-07-22T03:51:47;4.72;;;2.38;;
64295;SDS011;51082;38.236;15.432;2023-07-22T03:52:48;6.20;;;2.83;;
64295;SDS011;51082;38.236;15.432;2023-07-22T03:53:50;3.97;;;2.15;;
64295;SDS011;51082;38.236;15.432;2023-07-22T03:54:53;3.42;;;1.80;;
64295;SDS011;51082;38.236;15.432;2023-07-22T03:55:55;4.45;;;2.28;;
64295;SDS011;51082;38.236;15.432;2023-07-22T03:56:58;7.93;;;2.63;;
64295;SDS011;51082;38.236;15.432;2023-07-22T03:57:59;4.07;;;2.33;;
64295;SDS011;51082;38.236;15.432;2023-07-22T03:59:02;3.75;;;1.95;;
64295;SDS011;51082;38.236;15.432;2023-07-22T04:00:06;11.77;;;2.38;;
64295;SDS011;51082;38.236;15.432;2023-07-22T04:01:10;4.15;;;2.88;;
64295;SDS011;51082;38.236;15.432;2023-07-22T04:02:13;14.02;;;2.38;;
64295;SDS011;51082;38.236;15.432;2023-07-22T04:03:14;4.15;;;2.17;;
64295;SDS011;51082;38.236;15.432;2023-07-22T04:04:17;6.53;;;2.05;;
64295;SDS011;51082;38.236;15.432;2023-07-22T04:05:19;7.28;;;2.22;;
64295;SDS011;51082;38.236;15.432;2023-07-22T04:06:22;7.00;;;2.30;;
64295;SDS011;51082;38.236;15.432;2023-07-22T04:07:24;2.92;;;1.75;;
64295;SDS011;51082;38.236;15.432;2023-07-22T04:08:27;5.43;;;2.05;;
64295;SDS011;51082;38.236;15.432;2023-07-22T04:09:29;3.47;;;1.70;;
64295;SDS011;51082;38.236;15.432;2023-07-22T04:10:32;6.57;;;2.17;;
64295;SDS011;51082;38.236;15.432;2023-07-22T04:11:34;3.35;;;2.10;;
64295;SDS011;51082;38.236;15.432;2023-07-22T04:12:36;9.70;;;2.58;;
64295;SDS011;51082;38.236;15.432;2023-07-22T04:13:38;5.95;;;2.25;;
64295;SDS011;51082;38.236;15.432;2023-07-22T04:14:41;4.15;;;1.88;;
64295;SDS011;51082;38.236;15.432;2023-07-22T04:15:44;5.07;;;2.22;;
64295;SDS011;51082;38.236;15.432;2023-07-22T04:16:47;6.53;;;2.45;;
64295;SDS011;51082;38.236;15.432;2023-07-22T04:17:49;8.43;;;2.65;;
64295;SDS011;51082;38.236;15.432;2023-07-22T04:18:52;7.53;;;2.63;;
64295;SDS011;51082;38.236;15.432;2023-07-22T04:19:55;6.35;;;2.78;;
64295;SDS011;51082;38.236;15.432;2023-07-22T04:20:57;11.88;;;3.25;;
64295;SDS011;51082;38.236;15.432;2023-07-22T04:21:59;6.72;;;3.60;;
64295;SDS011;51082;38.236;15.432;2023-07-22T04:23:04;7.93;;;3.53;;
64295;SDS011;51082;38.236;15.432;2023-07-22T04:24:06;7.78;;;4.60;;
64295;SDS011;51082;38.236;15.432;2023-07-22T04:25:11;12.10;;;3.72;;
64295;SDS011;51082;38.236;15.432;2023-07-22T04:26:13;12.27;;;3.97;;
64295;SDS011;51082;38.236;15.432;2023-07-22T04:27:15;12.55;;;4.70;;
64295;SDS011;51082;38.236;15.432;2023-07-22T04:28:18;7.53;;;3.53;;
64295;SDS011;51082;38.236;15.432;2023-07-22T04:29:21;11.38;;;3.35;;
64295;SDS011;51082;38.236;15.432;2023-07-22T04:30:23;10.60;;;3.20;;
64295;SDS011;51082;38.236;15.432;2023-07-22T04:31:27;10.75;;;3.20;;
64295;SDS011;51082;38.236;15.432;2023-07-22T04:32:29;5.45;;;3.30;;
64295;SDS011;51082;38.236;15.432;2023-07-22T04:33:32;7.60;;;2.47;;
64295;SDS011;51082;38.236;15.432;2023-07-22T04:34:34;5.95;;;2.10;;
64295;SDS011;51082;38.236;15.432;2023-07-22T04:35:36;9.95;;;2.83;;
64295;SDS011;51082;38.236;15.432;2023-07-22T04:36:40;9.40;;;2.45;;
64295;SDS011;51082;38.236;15.432;2023-07-22T04:37:42;4.50;;;2.30;;
64295;SDS011;51082;38.236;15.432;2023-07-22T04:38:45;10.70;;;3.00;;
64295;SDS011;51082;38.236;15.432;2023-07-22T04:39:48;5.82;;;2.08;;
64295;SDS011;51082;38.236;15.432;2023-07-22T04:40:50;3.67;;;2.00;;
64295;SDS011;51082;38.236;15.432;2023-07-22T04:41:53;5.30;;;2.25;;
64295;SDS011;51082;38.236;15.432;2023-07-22T04:42:55;6.50;;;2.42;;
64295;SDS011;51082;38.236;15.432;2023-07-22T04:43:58;2.63;;;1.92;;
64295;SDS011;51082;38.236;15.432;2023-07-22T04:45:00;5.68;;;2.05;;
64295;SDS011;51082;38.236;15.432;2023-07-22T04:46:03;6.15;;;2.45;;
64295;SDS011;51082;38.236;15.432;2023-07-22T04:47:08;5.63;;;2.20;;
64295;SDS011;51082;38.236;15.432;2023-07-22T04:48:11;4.13;;;1.33;;
64295;SDS011;51082;38.236;15.432;2023-07-22T04:49:13;6.30;;;2.08;;
64295;SDS011;51082;38.236;15.432;2023-07-22T04:50:18;10.48;;;2.13;;
64295;SDS011;51082;38.236;15.432;2023-07-22T04:51:20;6.18;;;2.20;;
64295;SDS011;51082;38.236;15.432;2023-07-22T04:52:23;3.40;;;1.70;;
64295;SDS011;51082;38.236;15.432;2023-07-22T04:53:25;5.28;;;2.17;;
64295;SDS011;51082;38.236;15.432;2023-07-22T04:54:28;9.00;;;2.17;;
64295;SDS011;51082;38.236;15.432;2023-07-22T04:55:30;8.82;;;1.88;;
64295;SDS011;51082;38.236;15.432;2023-07-22T04:56:34;4.40;;;2.00;;
64295;SDS011;51082;38.236;15.432;2023-07-22T04:57:36;10.48;;;1.90;;
64295;SDS011;51082;38.236;15.432;2023-07-22T04:58:39;16.17;;;1.98;;
64295;SDS011;51082;38.236;15.432;2023-07-22T04:59:41;1.83;;;1.60;;
64295;SDS011;51082;38.236;15.432;2023-07-22T05:00:43;4.55;;;1.42;;
64295;SDS011;51082;38.236;15.432;2023-07-22T05:01:45;7.68;;;2.15;;
64295;SDS011;51082;38.236;15.432;2023-07-22T05:02:50;6.43;;;1.80;;
64295;SDS011;51082;38.236;15.432;2023-07-22T05:03:53;6.75;;;1.58;;
64295;SDS011;51082;38.236;15.432;2023-07-22T05:04:56;3.22;;;1.95;;
64295;SDS011;51082;38.236;15.432;2023-07-22T05:05:58;16.25;;;1.92;;
64295;SDS011;51082;38.236;15.432;2023-07-22T05:07:02;5.30;;;1.52;;
64295;SDS011;51082;38.236;15.432;2023-07-22T05:08:04;8.20;;;1.83;;
64295;SDS011;51082;38.236;15.432;2023-07-22T05:09:08;3.92;;;1.55;;
64295;SDS011;51082;38.236;15.432;2023-07-22T05:10:10;3.67;;;1.63;;
64295;SDS011;51082;38.236;15.432;2023-07-22T05:11:14;6.00;;;2.13;;
64295;SDS011;51082;38.236;15.432;2023-07-22T05:12:16;6.72;;;1.88;;
64295;SDS011;51082;38.236;15.432;2023-07-22T05:13:19;2.47;;;1.20;;
64295;SDS011;51082;38.236;15.432;2023-07-22T05:14:21;5.45;;;1.92;;
64295;SDS011;51082;38.236;15.432;2023-07-22T05:15:24;10.23;;;1.80;;
64295;SDS011;51082;38.236;15.432;2023-07-22T05:16:26;3.15;;;1.65;;
64295;SDS011;51082;38.236;15.432;2023-07-22T05:17:28;6.20;;;1.80;;
64295;SDS011;51082;38.236;15.432;2023-07-22T05:18:34;5.22;;;2.05;;
64295;SDS011;51082;38.236;15.432;2023-07-22T05:19:37;2.97;;;1.58;;
64295;SDS011;51082;38.236;15.432;2023-07-22T05:20:38;1.35;;;1.05;;
64295;SDS011;51082;38.236;15.432;2023-07-22T05:21:41;6.10;;;1.70;;
64295;SDS011;51082;38.236;15.432;2023-07-22T05:22:43;7.60;;;2.10;;
64295;SDS011;51082;38.236;15.432;2023-07-22T05:23:46;8.40;;;3.20;;
64295;SDS011;51082;38.236;15.432;2023-07-22T05:24:48;4.78;;;1.70;;
64295;SDS011;51082;38.236;15.432;2023-07-22T05:25:51;6.38;;;2.05;;
64295;SDS011;51082;38.236;15.432;2023-07-22T05:26:52;5.85;;;1.63;;
64295;SDS011;51082;38.236;15.432;2023-07-22T05:27:56;3.40;;;1.58;;
64295;SDS011;51082;38.236;15.432;2023-07-22T05:28:57;8.57;;;1.50;;
64295;SDS011;51082;38.236;15.432;2023-07-22T05:30:00;15.10;;;2.33;;
64295;SDS011;51082;38.236;15.432;2023-07-22T05:31:03;9.93;;;1.63;;
64295;SDS011;51082;38.236;15.432;2023-07-22T05:32:06;2.85;;;1.55;;
64295;SDS011;51082;38.236;15.432;2023-07-22T05:33:09;3.47;;;1.30;;
64295;SDS011;51082;38.236;15.432;2023-07-22T05:34:14;3.55;;;1.58;;
64295;SDS011;51082;38.236;15.432;2023-07-22T05:35:18;1.95;;;1.10;;
64295;SDS011;51082;38.236;15.432;2023-07-22T05:36:21;2.28;;;1.67;;
64295;SDS011;51082;38.236;15.432;2023-07-22T05:37:23;4.03;;;1.30;;
64295;SDS011;51082;38.236;15.432;2023-07-22T05:38:26;2.95;;;1.65;;
64295;SDS011;51082;38.236;15.432;2023-07-22T05:39:28;4.68;;;2.10;;
64295;SDS011;51082;38.236;15.432;2023-07-22T05:40:31;3.42;;;1.25;;
64295;SDS011;51082;38.236;15.432;2023-07-22T05:41:33;12.48;;;1.80;;
64295;SDS011;51082;38.236;15.432;2023-07-22T05:42:36;4.30;;;1.50;;
64295;SDS011;51082;38.236;15.432;2023-07-22T05:43:41;7.03;;;1.55;;
64295;SDS011;51082;38.236;15.432;2023-07-22T05:44:44;3.15;;;1.85;;
64295;SDS011;51082;38.236;15.432;2023-07-22T05:45:46;4.40;;;2.00;;
64295;SDS011;51082;38.236;15.432;2023-07-22T05:46:49;5.88;;;1.50;;
64295;SDS011;51082;38.236;15.432;2023-07-22T05:47:51;6.03;;;1.45;;
64295;SDS011;51082;38.236;15.432;2023-07-22T05:48:54;5.05;;;1.58;;
64295;SDS011;51082;38.236;15.432;2023-07-22T05:49:57;3.25;;;1.50;;
64295;SDS011;51082;38.236;15.432;2023-07-22T05:51:00;8.35;;;1.38;;
64295;SDS011;51082;38.236;15.432;2023-07-22T05:52:02;7.70;;;1.70;;
64295;SDS011;51082;38.236;15.432;2023-07-22T05:53:06;8.57;;;1.92;;
64295;SDS011;51082;38.236;15.432;2023-07-22T05:54:08;2.28;;;1.45;;
64295;SDS011;51082;38.236;15.432;2023-07-22T05:55:11;8.32;;;2.13;;
64295;SDS011;51082;38.236;15.432;2023-07-22T05:56:13;12.45;;;1.83;;
64295;SDS011;51082;38.236;15.432;2023-07-22T05:57:15;5.35;;;1.33;;
64295;SDS011;51082;38.236;15.432;2023-07-22T05:58:17;4.82;;;2.60;;
64295;SDS011;51082;38.236;15.432;2023-07-22T05:59:20;7.75;;;1.50;;
64295;SDS011;51082;38.236;15.432;2023-07-22T06:00:22;5.32;;;1.90;;
64295;SDS011;51082;38.236;15.432;2023-07-22T06:01:25;4.22;;;1.52;;
64295;SDS011;51082;38.236;15.432;2023-07-22T06:02:27;5.65;;;1.48;;
64295;SDS011;51082;38.236;15.432;2023-07-22T06:03:30;2.75;;;1.50;;
64295;SDS011;51082;38.236;15.432;2023-07-22T06:04:32;2.30;;;1.13;;
64295;SDS011;51082;38.236;15.432;2023-07-22T06:05:36;11.13;;;2.22;;
64295;SDS011;51082;38.236;15.432;2023-07-22T06:06:38;6.53;;;2.42;;
64295;SDS011;51082;38.236;15.432;2023-07-22T06:07:41;5.57;;;1.63;;
64295;SDS011;51082;38.236;15.432;2023-07-22T06:08:42;2.67;;;1.35;;
64295;SDS011;51082;38.236;15.432;2023-07-22T06:09:46;4.75;;;2.08;;
64295;SDS011;51082;38.236;15.432;2023-07-22T06:10:47;10.95;;;2.20;;
64295;SDS011;51082;38.236;15.432;2023-07-22T06:11:50;3.08;;;1.40;;